This is the latest recevied weather packets stored in our database for station/object DG4MJS-10. If no packets are shown the sender has not sent any weather packets the latest 1 day(s).
| Time | Temp. | Humidity | Pressure | Rain* | Wind** | Luminosity | Snow |
|---|---|---|---|---|---|---|---|
| 1778087715 | 16.11° C | 62% | 1007.2 hPa | - | - | - | - |
| 1778086815 | 16.11° C | 63% | 1007 hPa | - | - | - | - |
| 1778085915 | 16.11° C | 65% | 1007.1 hPa | - | - | - | - |
| 1778085015 | 16.11° C | 67% | 1006.6 hPa | - | - | - | - |
| 1778079616 | 17.22° C | 55% | 1004.4 hPa | - | - | - | - |
| 1778078716 | 17.22° C | 55% | 1004.9 hPa | - | - | - | - |
| 1778077816 | 17.22° C | 55% | 1005.2 hPa | - | - | - | - |
| 1778076916 | 17.22° C | 55% | 1005.2 hPa | - | - | - | - |
| 1778070615 | 16.67° C | 56% | 1005.1 hPa | - | - | - | - |
| 1778069715 | 17.22° C | 50% | 1005.1 hPa | - | - | - | - |
| 1778068815 | 17.22° C | 53% | 1005.3 hPa | - | - | - | - |
| 1778067915 | 17.22° C | 49% | 1005.4 hPa | - | - | - | - |
| 1778067015 | 17.22° C | 51% | 1005.4 hPa | - | - | - | - |
| 1778066115 | 16.67° C | 53% | 1005.4 hPa | - | - | - | - |
| 1778062515 | 16.11° C | 54% | 1006.3 hPa | - | - | - | - |
| 1778061615 | 16.11° C | 62% | 1006.2 hPa | - | - | - | - |
| 1778060715 | 16.11° C | 61% | 1006.3 hPa | - | - | - | - |
| 1778059815 | 15.56° C | 60% | 1006.5 hPa | - | - | - | - |
| 1778058915 | 15.56° C | 61% | 1006.5 hPa | - | - | - | - |
| 1778058015 | 15.56° C | 64% | 1006.6 hPa | - | - | - | - |
| 1778053514 | 14.44° C | 66% | 1006.7 hPa | - | - | - | - |
| 1778051714 | 14.44° C | 66% | 1006.9 hPa | - | - | - | - |
| 1778049914 | 13.89° C | 67% | 1007 hPa | - | - | - | - |
| 1778049014 | 13.89° C | 69% | 1007.1 hPa | - | - | - | - |
| 1778048114 | 13.33° C | 68% | 1007 hPa | - | - | - | - |
* Rain since midnight (hover to see other rain measurements)
** Current wind speed in m/s (hover to see current wind gust speed)